Time;durP1;ratioP1;P1;durP2;ratioP2;P2;SDS_P1;SDS_P2;PMS_P1;PMS_P2;Temp;Humidity;BMP_temperature;BMP_pressure;BME280_temperature;BME280_humidity;BME280_pressure;Samples;Min_cycle;Max_cycle;Signal;HPM_P1;HPM_P2
2023/04/16 00:01:14;;;;;;;21.65;12.88;;;;;;;5.69;100.00;97217.56;5023414;28;20046;-60
2023/04/16 00:03:40;;;;;;;21.45;12.68;;;;;;;5.68;100.00;97217.78;5024719;28;20503;-60
2023/04/16 00:06:09;;;;;;;22.08;12.63;;;;;;;5.67;100.00;97213.44;5024409;28;20033;-60
2023/04/16 00:08:36;;;;;;;20.67;12.10;;;;;;;5.69;100.00;97222.13;5022418;28;20045;-60
2023/04/16 00:11:04;;;;;;;23.00;12.20;;;;;;;5.66;100.00;97228.75;5021657;28;20523;-59
2023/04/16 00:13:31;;;;;;;24.52;13.63;;;;;;;5.63;100.00;97221.13;5032246;28;20037;-60
2023/04/16 00:15:58;;;;;;;22.15;12.93;;;;;;;5.62;100.00;97224.88;5024780;28;21254;-60
2023/04/16 00:18:25;;;;;;;21.45;13.00;;;;;;;5.60;100.00;97221.56;5022404;28;20045;-60
2023/04/16 00:20:52;;;;;;;23.38;13.07;;;;;;;5.58;100.00;97223.69;5019520;28;20037;-60
2023/04/16 00:23:19;;;;;;;24.60;14.90;;;;;;;5.55;100.00;97227.63;5027176;28;20592;-60
2023/04/16 00:25:46;;;;;;;24.02;13.05;;;;;;;5.69;100.00;97232.84;5015805;28;20196;-59
2023/04/16 00:28:12;;;;;;;21.48;13.00;;;;;;;5.62;100.00;97227.56;5025774;28;20548;-60
2023/04/16 00:30:39;;;;;;;21.00;12.70;;;;;;;5.58;100.00;97229.88;5024034;28;20075;-60
2023/04/16 00:33:05;;;;;;;21.40;12.48;;;;;;;5.65;100.00;97231.66;5029139;28;20056;-60
2023/04/16 00:35:32;;;;;;;20.38;12.82;;;;;;;5.62;100.00;97222.19;5023360;28;20128;-60
2023/04/16 00:37:58;;;;;;;20.65;11.68;;;;;;;5.64;100.00;97216.59;5025382;28;20133;-60
2023/04/16 00:40:29;;;;;;;19.77;10.82;;;;;;;5.68;100.00;97215.09;5027730;28;20056;-59
2023/04/16 00:42:55;;;;;;;22.58;12.35;;;;;;;5.66;100.00;97230.63;5025832;28;20132;-59
2023/04/16 00:45:22;;;;;;;18.92;11.40;;;;;;;5.67;100.00;97222.34;5022672;28;20049;-60
2023/04/16 00:47:48;;;;;;;19.02;12.02;;;;;;;5.68;100.00;97233.91;5022306;28;20088;-59
2023/04/16 00:50:16;;;;;;;18.80;10.73;;;;;;;5.75;100.00;97236.53;5025184;28;20053;-59
2023/04/16 00:52:46;;;;;;;19.27;11.57;;;;;;;5.63;100.00;97231.88;5029436;28;20132;-60
2023/04/16 00:55:13;;;;;;;18.58;11.60;;;;;;;5.70;100.00;97242.56;5025971;28;20091;-59
2023/04/16 00:57:40;;;;;;;20.38;10.95;;;;;;;5.75;100.00;97228.47;5031194;28;20705;-60
2023/04/16 01:00:07;;;;;;;21.65;11.80;;;;;;;5.66;100.00;97226.06;5018511;28;20059;-59
2023/04/16 01:02:34;;;;;;;20.60;11.63;;;;;;;5.58;100.00;97224.50;5012404;28;20666;-60
2023/04/16 01:05:02;;;;;;;19.05;10.30;;;;;;;5.67;100.00;97233.09;5026327;28;20125;-60
2023/04/16 01:07:28;;;;;;;19.80;12.18;;;;;;;5.67;100.00;97232.25;5029580;28;20140;-59
2023/04/16 01:09:55;;;;;;;17.90;11.63;;;;;;;5.68;100.00;97232.03;5024745;28;20119;-59
2023/04/16 01:12:22;;;;;;;17.98;10.73;;;;;;;5.60;100.00;97225.09;5028368;28;20041;-59
2023/04/16 01:14:48;;;;;;;16.92;9.32;;;;;;;5.70;100.00;97239.88;5027148;28;20547;-61
2023/04/16 01:17:15;;;;;;;14.95;8.82;;;;;;;5.62;100.00;97224.88;5021829;28;20068;-60
2023/04/16 01:19:42;;;;;;;15.30;9.10;;;;;;;5.63;100.00;97229.19;5019608;28;20053;-59
2023/04/16 01:22:08;;;;;;;18.63;9.77;;;;;;;5.75;100.00;97231.16;5027999;28;20129;-60
2023/04/16 01:24:35;;;;;;;15.05;8.82;;;;;;;5.75;100.00;97236.53;5028573;28;20050;-60
2023/04/16 01:27:02;;;;;;;18.60;9.43;;;;;;;5.66;100.00;97234.13;5028206;28;20501;-59
2023/04/16 01:29:28;;;;;;;15.55;9.40;;;;;;;5.64;100.00;97238.88;5027601;28;20045;-60
2023/04/16 01:31:56;;;;;;;16.75;10.10;;;;;;;5.61;100.00;97239.34;5025242;28;20044;-60
2023/04/16 01:34:35;;;;;;;15.63;9.18;;;;;;;5.67;100.00;97240.31;5022480;28;20053;-60
2023/04/16 01:37:02;;;;;;;17.05;9.77;;;;;;;5.64;100.00;97241.56;5020658;28;20559;-60
2023/04/16 01:39:29;;;;;;;15.93;9.52;;;;;;;5.69;100.00;97246.28;5016741;28;20054;-61
2023/04/16 01:41:56;;;;;;;17.73;9.90;;;;;;;5.62;100.00;97242.84;5018340;28;20052;-60
2023/04/16 01:44:23;;;;;;;17.25;9.88;;;;;;;5.66;100.00;97249.41;5021023;28;20107;-60
2023/04/16 01:46:49;;;;;;;15.98;9.43;;;;;;;5.73;100.00;97253.69;5022014;28;20140;-61
2023/04/16 01:49:16;;;;;;;17.10;10.00;;;;;;;5.69;100.00;97246.28;5019858;28;20050;-59
2023/04/16 01:51:42;;;;;;;17.30;10.15;;;;;;;5.57;100.00;97246.22;5020259;28;20037;-58
2023/04/16 01:54:09;;;;;;;17.85;10.45;;;;;;;5.60;100.00;97254.66;5015960;28;20108;-60
2023/04/16 01:56:35;;;;;;;19.33;10.85;;;;;;;5.65;100.00;97255.84;5020682;28;20046;-59
2023/04/16 01:59:02;;;;;;;18.20;10.18;;;;;;;5.64;100.00;97255.00;5027638;28;20548;-60
2023/04/16 02:01:34;;;;;;;19.95;10.40;;;;;;;5.59;100.00;97249.50;5024661;28;20045;-59
2023/04/16 02:04:02;;;;;;;21.85;11.45;;;;;;;5.50;100.00;97254.34;5031652;28;20132;-60
2023/04/16 02:06:30;;;;;;;22.08;11.20;;;;;;;5.51;100.00;97255.16;5021083;28;20038;-59
2023/04/16 02:08:56;;;;;;;21.90;11.27;;;;;;;5.44;100.00;97255.22;5024692;28;20056;-57
2023/04/16 02:11:25;;;;;;;20.58;9.95;;;;;;;5.53;100.00;97259.25;5029768;28;20125;-60
2023/04/16 02:13:52;;;;;;;21.15;10.15;;;;;;;5.54;100.00;97258.22;5033035;28;20047;-59
2023/04/16 02:16:18;;;;;;;20.30;10.40;;;;;;;5.51;100.00;97260.53;5027240;28;20266;-60
2023/04/16 02:18:55;;;;;;;23.00;10.38;;;;;;;5.50;100.00;97259.72;5027825;28;20128;-59
2023/04/16 02:21:22;;;;;;;19.17;9.85;;;;;;;5.52;100.00;97267.53;5023157;28;20116;-59
2023/04/16 02:23:50;;;;;;;19.10;9.82;;;;;;;5.55;100.00;97262.56;5024850;28;20530;-59
2023/04/16 02:26:21;;;;;;;18.95;9.95;;;;;;;5.55;100.00;97262.56;5025905;28;20160;-60
2023/04/16 02:28:48;;;;;;;19.05;9.60;;;;;;;5.59;100.00;97263.75;5029276;28;20609;-59
2023/04/16 02:31:18;;;;;;;20.05;10.82;;;;;;;5.59;100.00;97258.38;5019708;28;20140;-59
2023/04/16 02:33:46;;;;;;;22.38;11.30;;;;;;;5.52;100.00;97263.00;5033056;28;20040;-59
2023/04/16 02:36:13;;;;;;;20.67;12.38;;;;;;;5.52;100.00;97257.63;5028993;28;20095;-59
2023/04/16 02:38:40;;;;;;;22.42;11.35;;;;;;;5.53;100.00;97263.81;5029691;28;20033;-58
2023/04/16 02:41:06;;;;;;;23.17;11.27;;;;;;;5.51;100.00;97265.88;5028752;28;20045;-59
2023/04/16 02:43:33;;;;;;;23.77;12.32;;;;;;;5.51;100.00;97261.34;5027892;28;20056;-59
2023/04/16 02:46:00;;;;;;;27.27;12.60;;;;;;;5.52;100.00;97265.69;5028847;28;20128;-60
2023/04/16 02:48:27;;;;;;;27.65;12.95;;;;;;;5.55;100.00;97267.09;5032444;28;20075;-58
2023/04/16 02:50:53;;;;;;;26.83;12.98;;;;;;;5.51;100.00;97257.84;5023759;28;20037;-60
2023/04/16 02:53:20;;;;;;;28.17;13.35;;;;;;;5.51;100.00;97279.31;5023968;28;20049;-60
2023/04/16 02:55:54;;;;;;;29.85;13.05;;;;;;;5.46;100.00;97264.69;5032112;28;20482;-61
2023/04/16 02:58:23;;;;;;;26.23;13.18;;;;;;;5.42;100.00;97278.81;5023554;28;20045;-59
2023/04/16 03:00:51;;;;;;;30.35;14.35;;;;;;;5.45;100.00;97273.78;5031163;28;20057;-60
2023/04/16 03:03:18;;;;;;;22.45;11.85;;;;;;;5.53;100.00;97267.31;5021946;28;20046;-59
2023/04/16 03:05:44;;;;;;;26.17;12.88;;;;;;;5.53;100.00;97271.88;5027872;28;20064;-59
2023/04/16 03:08:11;;;;;;;24.58;12.15;;;;;;;5.53;100.00;97274.56;5028785;28;20405;-60
2023/04/16 03:10:38;;;;;;;26.30;13.02;;;;;;;5.56;100.00;97274.94;5027306;28;20052;-60
2023/04/16 03:13:04;;;;;;;26.05;13.02;;;;;;;5.44;100.00;97282.91;5034065;28;20664;-60
2023/04/16 03:15:31;;;;;;;26.98;12.98;;;;;;;5.47;100.00;97270.91;5027416;28;20040;-60
2023/04/16 03:17:58;;;;;;;24.80;12.40;;;;;;;5.40;100.00;97275.50;5030585;28;20113;-60
2023/04/16 03:20:25;;;;;;;25.17;11.48;;;;;;;5.46;100.00;97285.38;5027434;28;20528;-60
2023/04/16 03:22:52;;;;;;;27.00;12.95;;;;;;;5.42;100.00;97284.16;5028286;28;20072;-59
2023/04/16 03:25:18;;;;;;;24.90;12.23;;;;;;;5.43;100.00;97286.63;5025246;28;20581;-60
2023/04/16 03:27:45;;;;;;;24.40;12.13;;;;;;;5.45;100.00;97279.16;5034375;28;20036;-60
2023/04/16 03:30:13;;;;;;;25.38;12.27;;;;;;;5.47;100.00;97292.38;5026742;28;20068;-57
2023/04/16 03:32:40;;;;;;;25.00;11.77;;;;;;;5.51;100.00;97293.59;5030157;28;20135;-59
2023/04/16 03:35:08;;;;;;;26.15;12.10;;;;;;;5.51;100.00;97292.75;5017985;28;20640;-60
2023/04/16 03:37:35;;;;;;;25.48;12.63;;;;;;;5.42;100.00;97295.72;5031222;28;20053;-59
2023/04/16 03:40:04;;;;;;;28.00;13.55;;;;;;;5.41;100.00;97290.56;5029032;28;20136;-58
2023/04/16 03:42:31;;;;;;;25.95;12.35;;;;;;;5.46;100.00;97304.16;5027140;28;20141;-59
2023/04/16 03:44:58;;;;;;;23.52;11.40;;;;;;;5.43;100.00;97300.06;5023622;28;20091;-59
2023/04/16 03:47:25;;;;;;;23.20;11.57;;;;;;;5.47;100.00;97303.13;5028712;28;20041;-60
2023/04/16 03:49:55;;;;;;;23.08;11.10;;;;;;;5.39;100.00;97296.19;5030427;28;20049;-59
2023/04/16 03:52:21;;;;;;;26.48;12.48;;;;;;;5.40;100.00;97305.88;5028235;28;20500;-60
2023/04/16 03:54:48;;;;;;;24.98;12.52;;;;;;;5.36;100.00;97309.19;5027399;28;20056;-60
2023/04/16 03:57:23;;;;;;;23.33;10.20;;;;;;;5.35;100.00;97308.41;5024644;28;20461;-60
2023/04/16 03:59:50;;;;;;;24.75;10.43;;;;;;;5.39;100.00;97312.28;5028479;28;20076;-59
2023/04/16 04:02:17;;;;;;;18.67;10.00;;;;;;;5.41;100.00;97306.66;5029109;28;20045;-60
2023/04/16 04:04:44;;;;;;;22.10;9.73;;;;;;;5.37;100.00;97298.25;5024888;28;20045;-60
2023/04/16 04:07:10;;;;;;;22.90;9.98;;;;;;;5.35;100.00;97305.72;5029832;28;20044;-59
2023/04/16 04:09:37;;;;;;;22.17;10.23;;;;;;;5.41;100.00;97298.63;5027902;28;20615;-59
2023/04/16 04:12:04;;;;;;;20.95;9.43;;;;;;;5.44;100.00;97311.59;5029093;28;20034;-58
2023/04/16 04:14:31;;;;;;;22.80;10.55;;;;;;;5.39;100.00;97311.47;5029917;28;20052;-60
2023/04/16 04:16:58;;;;;;;19.60;9.13;;;;;;;5.46;100.00;97314.91;5030593;28;20037;-60
2023/04/16 04:19:25;;;;;;;20.98;9.50;;;;;;;5.40;100.00;97308.56;5031186;28;20049;-59
2023/04/16 04:21:51;;;;;;;22.67;9.93;;;;;;;5.32;100.00;97312.34;5027124;28;20411;-59
2023/04/16 04:24:18;;;;;;;19.90;8.88;;;;;;;5.39;100.00;97319.50;5019359;28;20133;-59
2023/04/16 04:26:45;;;;;;;24.42;9.80;;;;;;;5.41;100.00;97317.41;5031127;28;20669;-59
2023/04/16 04:29:12;;;;;;;23.65;9.95;;;;;;;5.36;100.00;97320.78;5022387;28;20046;-59
2023/04/16 04:31:39;;;;;;;25.55;10.13;;;;;;;5.34;100.00;97314.78;5025241;28;20040;-57
2023/04/16 04:34:06;;;;;;;21.60;10.75;;;;;;;5.33;100.00;97323.88;5018979;28;20044;-62
2023/04/16 04:36:33;;;;;;;23.45;10.88;;;;;;;5.33;100.00;97330.09;5029757;28;20463;-57
2023/04/16 04:39:00;;;;;;;23.48;10.82;;;;;;;5.31;100.00;97324.09;5022074;28;20061;-59
2023/04/16 04:41:26;;;;;;;21.10;10.20;;;;;;;5.37;100.00;97335.00;5021568;28;20658;-60
2023/04/16 04:43:53;;;;;;;23.02;10.50;;;;;;;5.41;100.00;97337.03;5026511;28;20041;-60
2023/04/16 04:46:20;;;;;;;23.15;9.93;;;;;;;5.39;100.00;97341.00;5013458;28;20034;-59
2023/04/16 04:48:46;;;;;;;24.85;11.30;;;;;;;5.44;100.00;97341.16;5025280;28;20034;-59
2023/04/16 04:51:15;;;;;;;26.50;12.15;;;;;;;5.40;100.00;97351.53;5007066;28;20544;-58
2023/04/16 04:53:42;;;;;;;32.28;15.50;;;;;;;5.46;100.00;97349.81;5022187;28;20421;-59
2023/04/16 04:56:09;;;;;;;37.83;16.50;;;;;;;5.35;100.00;97348.66;5026238;28;20041;-58
2023/04/16 04:58:39;;;;;;;41.47;17.35;;;;;;;5.32;100.00;97360.69;5017123;28;20111;-60
2023/04/16 05:01:06;;;;;;;45.22;18.08;;;;;;;5.32;100.00;97349.94;5023654;28;20119;-57
2023/04/16 05:03:32;;;;;;;39.22;16.80;;;;;;;5.42;100.00;97359.34;5025853;28;20055;-58
2023/04/16 05:05:59;;;;;;;46.65;19.05;;;;;;;5.43;100.00;97359.16;5024901;28;20046;-58
2023/04/16 05:08:26;;;;;;;38.28;16.05;;;;;;;5.40;100.00;97364.09;5025823;28;20099;-59
2023/04/16 05:10:52;;;;;;;36.58;16.23;;;;;;;5.36;100.00;97373.66;5016696;28;20141;-58
2023/04/16 05:13:19;;;;;;;39.10;16.75;;;;;;;5.36;100.00;97374.47;5024136;28;20048;-59
2023/04/16 05:15:45;;;;;;;37.75;17.20;;;;;;;5.38;100.00;97372.38;5026570;28;20072;-59
2023/04/16 05:18:12;;;;;;;45.58;19.25;;;;;;;5.30;100.00;97378.84;5025046;28;20507;-59
2023/04/16 05:20:38;;;;;;;46.08;18.65;;;;;;;5.34;100.00;97382.75;5030355;28;20045;-57
2023/04/16 05:23:05;;;;;;;47.50;21.20;;;;;;;5.31;100.00;97377.81;5024166;28;20052;-59
2023/04/16 05:25:31;;;;;;;49.95;19.60;;;;;;;5.26;100.00;97388.38;5030702;28;20554;-57
2023/04/16 05:27:57;;;;;;;48.00;19.70;;;;;;;5.28;100.00;97390.84;5023399;28;20036;-59
2023/04/16 05:30:24;;;;;;;48.53;19.83;;;;;;;5.27;100.00;97389.22;5021657;28;20718;-57
2023/04/16 05:32:50;;;;;;;45.55;18.60;;;;;;;5.35;100.00;97397.00;5023096;28;20123;-58
2023/04/16 05:35:17;;;;;;;51.97;18.52;;;;;;;5.37;100.00;97394.91;5018594;28;20053;-61
2023/04/16 05:37:44;;;;;;;52.88;21.73;;;;;;;5.36;100.00;97398.66;5017359;28;20072;-59
2023/04/16 05:40:12;;;;;;;45.30;19.77;;;;;;;5.37;100.00;97400.28;5020217;28;20041;-60
2023/04/16 05:42:39;;;;;;;44.20;19.77;;;;;;;5.38;100.00;97407.28;5026673;28;20072;-59
2023/04/16 05:45:06;;;;;;;41.90;19.58;;;;;;;5.39;100.00;97403.59;5023274;28;20164;-60
2023/04/16 05:47:32;;;;;;;39.95;17.95;;;;;;;5.40;100.00;97404.38;5033996;28;20124;-60
2023/04/16 05:49:59;;;;;;;35.38;17.42;;;;;;;5.42;100.00;97408.50;5025767;28;20064;-58
2023/04/16 05:52:25;;;;;;;46.95;18.58;;;;;;;5.34;100.00;97412.28;5032312;28;20046;-60
2023/04/16 05:54:52;;;;;;;43.30;19.23;;;;;;;5.34;100.00;97412.28;5021426;28;20045;-59
2023/04/16 05:57:18;;;;;;;41.30;18.20;;;;;;;5.35;100.00;97410.44;5025737;28;20806;-59
2023/04/16 05:59:45;;;;;;;47.83;18.67;;;;;;;5.30;100.00;97419.13;5020275;28;20471;-57
2023/04/16 06:02:11;;;;;;;42.78;17.80;;;;;;;5.30;100.00;97419.13;5022065;28;20046;-59
2023/04/16 06:04:38;;;;;;;49.25;20.13;;;;;;;5.29;100.00;97425.53;5022208;28;20098;-58
2023/04/16 06:07:05;;;;;;;49.95;20.17;;;;;;;5.39;100.00;97424.22;5023824;28;20042;-59
2023/04/16 06:09:31;;;;;;;50.50;19.83;;;;;;;5.36;100.00;97427.34;5025023;28;20520;-58
2023/04/16 06:11:58;;;;;;;57.58;21.10;;;;;;;5.32;100.00;97424.28;5029540;28;20583;-57
2023/04/16 06:14:25;;;;;;;51.78;19.38;;;;;;;5.40;100.00;97424.03;5018064;28;20053;-60
2023/04/16 06:16:51;;;;;;;51.38;19.27;;;;;;;5.39;100.00;97424.22;5031554;28;20075;-58
2023/04/16 06:19:18;;;;;;;46.95;20.52;;;;;;;5.42;100.00;97429.19;5022294;28;20092;-58
2023/04/16 06:21:44;;;;;;;48.95;18.73;;;;;;;5.41;100.00;97431.03;5019303;28;20037;-59
2023/04/16 06:24:12;;;;;;;46.40;19.85;;;;;;;5.47;100.00;97421.28;5025126;28;20567;-59
2023/04/16 06:26:38;;;;;;;46.17;19.27;;;;;;;5.55;100.00;97434.44;5025206;28;20072;-59
2023/04/16 06:29:05;;;;;;;50.80;19.33;;;;;;;5.49;100.00;97429.94;5026176;28;20428;-59
2023/04/16 06:31:31;;;;;;;42.05;18.85;;;;;;;5.44;100.00;97432.44;5029450;28;20061;-58
2023/04/16 06:33:58;;;;;;;43.08;18.48;;;;;;;5.47;100.00;97427.50;5029168;28;20052;-59
2023/04/16 06:36:26;;;;;;;43.67;18.23;;;;;;;5.45;100.00;97434.09;5030241;28;20117;-59
2023/04/16 06:38:52;;;;;;;46.85;18.95;;;;;;;5.55;100.00;97431.75;5031295;28;20662;-59
2023/04/16 06:41:21;;;;;;;46.17;19.10;;;;;;;5.46;100.00;97435.75;5023186;28;20676;-59
2023/04/16 06:43:48;;;;;;;39.45;17.65;;;;;;;5.47;100.00;97430.19;5023333;28;20104;-59
2023/04/16 06:46:14;;;;;;;43.10;17.73;;;;;;;5.43;100.00;97423.59;5028271;28;22000;-60
2023/04/16 06:48:41;;;;;;;42.58;19.25;;;;;;;5.53;100.00;97420.41;5029288;28;20131;-60
2023/04/16 06:51:08;;;;;;;36.15;17.92;;;;;;;5.47;100.00;97432.03;5032932;28;20081;-60
2023/04/16 06:53:36;;;;;;;38.15;16.98;;;;;;;5.47;100.00;97423.97;5033722;28;20132;-59
2023/04/16 06:56:03;;;;;;;39.08;16.35;;;;;;;5.42;100.00;97418.44;5033524;28;20045;-58
2023/04/16 06:58:30;;;;;;;41.08;17.73;;;;;;;5.43;100.00;97428.97;5032936;28;20128;-59
2023/04/16 07:00:56;;;;;;;35.65;17.52;;;;;;;5.39;100.00;97434.97;5028946;28;20041;-50
2023/04/16 07:03:23;;;;;;;40.85;17.40;;;;;;;5.47;100.00;97440.09;5026729;28;20055;-52
2023/04/16 07:05:50;;;;;;;40.33;17.63;;;;;;;5.62;100.00;97437.09;5025876;28;20546;-51
2023/04/16 07:08:16;;;;;;;32.63;16.33;;;;;;;5.55;100.00;97425.56;5007766;28;20528;-51
2023/04/16 07:10:43;;;;;;;36.13;16.63;;;;;;;5.75;100.00;97420.03;4994947;28;20096;-49
2023/04/16 07:13:10;;;;;;;32.03;16.17;;;;;;;5.91;100.00;97428.59;5031673;28;20041;-52
2023/04/16 07:15:36;;;;;;;28.75;13.95;;;;;;;6.13;100.00;97418.28;5032975;28;20048;-50
2023/04/16 07:18:03;;;;;;;29.63;15.75;;;;;;;5.99;100.00;97412.19;5026487;28;20120;-48
2023/04/16 07:20:29;;;;;;;26.15;14.10;;;;;;;5.91;100.00;97413.28;5030203;28;20642;-50
2023/04/16 07:22:58;;;;;;;27.95;13.80;;;;;;;5.92;100.00;97412.25;5024169;28;20111;-48
2023/04/16 07:25:25;;;;;;;28.55;14.32;;;;;;;5.70;100.00;97411.81;5022401;28;20087;-53
2023/04/16 07:27:52;;;;;;;29.08;15.23;;;;;;;5.77;100.00;97425.19;5030370;28;20635;-51
2023/04/16 07:30:18;;;;;;;27.92;14.48;;;;;;;5.86;100.00;97424.69;5030872;28;20057;-49
2023/04/16 07:32:45;;;;;;;26.55;14.02;;;;;;;6.17;100.00;97427.56;5021796;28;20138;-46
2023/04/16 07:35:11;;;;;;;28.10;14.95;;;;;;;6.33;100.00;97415.38;5022441;28;20049;-48
2023/04/16 07:37:38;;;;;;;29.10;14.68;;;;;;;6.36;100.00;97423.00;5024630;28;20132;-51
2023/04/16 07:40:05;;;;;;;26.60;14.15;;;;;;;5.95;100.00;97422.56;5024535;28;20086;-59
2023/04/16 07:42:32;;;;;;;24.05;13.85;;;;;;;5.82;100.00;97426.16;5026431;28;20068;-59
2023/04/16 07:44:58;;;;;;;24.98;13.68;;;;;;;5.71;100.00;97426.88;5031213;28;20049;-58
2023/04/16 07:47:26;;;;;;;25.85;14.65;;;;;;;5.75;100.00;97440.72;5032284;28;20057;-59
2023/04/16 07:49:52;;;;;;;29.15;14.77;;;;;;;5.67;100.00;97444.47;5033020;28;20052;-60
2023/04/16 07:52:19;;;;;;;27.23;15.13;;;;;;;5.71;100.00;97451.06;5026859;28;20056;-59
2023/04/16 07:54:46;;;;;;;28.30;14.02;;;;;;;5.84;100.00;97447.47;5035199;28;20037;-59
2023/04/16 07:57:12;;;;;;;26.58;14.80;;;;;;;5.88;100.00;97450.50;5032148;28;20137;-59
2023/04/16 07:59:39;;;;;;;31.65;14.43;;;;;;;5.81;100.00;97447.88;5028159;28;20052;-58
2023/04/16 08:02:06;;;;;;;28.23;13.95;;;;;;;5.79;100.00;97450.78;5031018;28;20037;-59
2023/04/16 08:04:32;;;;;;;24.67;13.65;;;;;;;5.90;100.00;97451.13;5030473;28;20077;-58
2023/04/16 08:06:59;;;;;;;25.40;12.27;;;;;;;5.92;100.00;97451.72;5026481;28;20095;-60
2023/04/16 08:09:27;;;;;;;24.40;13.00;;;;;;;5.96;100.00;97459.13;5011435;28;20041;-60
2023/04/16 08:11:53;;;;;;;23.63;13.23;;;;;;;5.92;100.00;97444.50;5028298;28;20670;-58
2023/04/16 08:14:20;;;;;;;24.77;13.57;;;;;;;5.95;100.00;97459.34;5030069;28;20050;-60
2023/04/16 08:16:46;;;;;;;23.60;12.88;;;;;;;5.78;100.00;97459.09;5027533;28;20471;-59
2023/04/16 08:19:13;;;;;;;25.05;13.30;;;;;;;5.85;100.00;97466.06;5027838;28;20037;-59
2023/04/16 08:21:39;;;;;;;23.92;11.90;;;;;;;5.89;100.00;97462.94;5031531;28;20152;-60
2023/04/16 08:24:06;;;;;;;26.08;12.70;;;;;;;5.95;100.00;97470.94;5022672;28;20080;-60
2023/04/16 08:26:32;;;;;;;27.00;13.23;;;;;;;5.99;100.00;97471.31;5028095;28;20835;-59
2023/04/16 08:28:59;;;;;;;25.52;12.85;;;;;;;6.02;100.00;97473.56;5029123;28;20585;-60
2023/04/16 08:31:25;;;;;;;24.17;12.80;;;;;;;5.99;100.00;97480.22;5020237;28;20148;-60
2023/04/16 08:33:52;;;;;;;21.55;11.90;;;;;;;6.04;100.00;97478.75;5027071;28;20152;-59
2023/04/16 08:36:18;;;;;;;23.27;12.80;;;;;;;6.07;100.00;97486.38;5026623;28;20049;-58
2023/04/16 08:38:45;;;;;;;25.73;12.48;;;;;;;6.27;100.00;97485.38;5028650;28;20121;-58
2023/04/16 08:41:12;;;;;;;20.40;11.40;;;;;;;6.11;100.00;97482.19;5028538;28;20049;-59
2023/04/16 08:43:43;;;;;;;24.23;11.60;;;;;;;6.15;100.00;97485.28;5028673;28;20724;-60
2023/04/16 08:46:11;;;;;;;22.50;12.50;;;;;;;6.20;100.00;97482.75;5024680;28;20045;-60
2023/04/16 08:48:37;;;;;;;22.75;11.85;;;;;;;6.17;100.00;97485.88;5025781;28;20048;-60
2023/04/16 08:51:08;;;;;;;24.23;12.75;;;;;;;6.17;100.00;97491.25;5028155;28;20059;-58
2023/04/16 08:53:46;;;;;;;22.87;13.03;;;;;;;6.07;100.00;97489.88;5024449;28;20116;-60
2023/04/16 08:56:14;;;;;;;23.17;12.00;;;;;;;6.18;100.00;97491.03;5026377;28;20363;-59
2023/04/16 08:58:41;;;;;;;21.70;11.63;;;;;;;6.33;100.00;97493.38;5028577;28;20041;-60
2023/04/16 09:01:10;;;;;;;24.30;13.25;;;;;;;6.35;100.00;97496.66;5031747;28;20049;-60
2023/04/16 09:03:36;;;;;;;23.92;12.38;;;;;;;6.40;100.00;97490.63;5027672;28;20045;-59
2023/04/16 09:06:03;;;;;;;21.58;11.30;;;;;;;6.46;100.00;97487.06;5027667;28;20041;-59
2023/04/16 09:08:31;;;;;;;21.58;11.50;;;;;;;6.42;100.00;97495.78;5030483;28;20124;-60
2023/04/16 09:10:58;;;;;;;21.95;11.73;;;;;;;6.38;100.00;97490.84;5030964;28;20051;-59
2023/04/16 09:13:25;;;;;;;26.73;13.18;;;;;;;6.43;100.00;97492.03;5031046;28;20056;-60
2023/04/16 09:15:53;;;;;;;24.42;13.00;;;;;;;6.40;100.00;97493.31;5027652;28;20049;-59
2023/04/16 09:18:20;;;;;;;23.20;11.57;;;;;;;6.60;100.00;97497.69;5030943;28;20062;-60
2023/04/16 09:20:50;;;;;;;20.33;12.32;;;;;;;6.56;100.00;97489.22;5030725;28;20048;-59
2023/04/16 09:23:17;;;;;;;24.70;12.90;;;;;;;6.68;100.00;97486.63;5028382;28;20105;-59
2023/04/16 09:25:44;;;;;;;22.05;11.95;;;;;;;6.75;100.00;97490.03;5031781;28;20102;-58
2023/04/16 09:28:10;;;;;;;23.88;12.20;;;;;;;6.87;100.00;97497.38;5029897;28;20041;-59
2023/04/16 09:30:37;;;;;;;34.25;15.77;;;;;;;6.94;100.00;97505.38;5026930;28;20050;-59
2023/04/16 09:33:20;;;;;;;20.92;11.55;;;;;;;6.87;100.00;97495.53;5025603;28;20046;-59
2023/04/16 09:35:49;;;;;;;29.80;14.25;;;;;;;7.04;100.00;97494.88;5030793;28;20055;-59
2023/04/16 09:38:16;;;;;;;22.52;13.40;;;;;;;7.08;100.00;97490.69;5033114;28;20049;-58
2023/04/16 09:40:43;;;;;;;20.55;11.65;;;;;;;6.96;100.00;97497.91;5031568;28;20053;-60
2023/04/16 09:43:13;;;;;;;23.17;13.23;;;;;;;7.20;100.00;97498.03;5024001;28;20050;-60
2023/04/16 09:45:53;;;;;;;22.58;12.10;;;;;;;7.10;100.00;97495.84;5028446;28;20124;-60
2023/04/16 09:48:31;;;;;;;20.73;11.52;;;;;;;7.21;100.00;97496.97;5025911;28;20064;-59
2023/04/16 09:50:59;;;;;;;19.85;12.07;;;;;;;7.05;100.00;97499.25;5028568;28;20045;-58
2023/04/16 09:53:30;;;;;;;23.10;11.95;;;;;;;6.97;100.00;97510.31;5028030;28;20053;-59
2023/04/16 09:55:58;;;;;;;28.42;13.63;;;;;;;6.86;100.00;97512.69;5031127;28;20044;-59
2023/04/16 09:58:25;;;;;;;24.55;12.55;;;;;;;6.97;100.00;97513.81;5024522;28;20092;-59
2023/04/16 10:00:59;;;;;;;22.73;12.38;;;;;;;6.93;100.00;97519.88;5035604;28;20041;-59
2023/04/16 10:03:30;;;;;;;22.15;11.65;;;;;;;6.99;100.00;97527.88;5032007;28;20057;-60
2023/04/16 10:06:05;;;;;;;18.80;10.93;;;;;;;6.93;100.00;97514.50;5031190;28;20048;-58
2023/04/16 10:08:32;;;;;;;25.17;13.98;;;;;;;7.01;100.00;97528.47;5032268;28;20128;-59
2023/04/16 10:10:58;;;;;;;32.03;12.73;;;;;;;6.97;100.00;97527.28;5025358;28;20127;-59
2023/04/16 10:13:29;;;;;;;22.58;11.30;;;;;;;6.79;100.00;97525.44;5025654;28;20131;-59
2023/04/16 10:15:56;;;;;;;25.20;12.38;;;;;;;6.85;100.00;97537.13;5028167;28;20040;-59
2023/04/16 10:18:23;;;;;;;21.77;12.20;;;;;;;6.84;100.00;97528.25;5031427;28;20049;-58
2023/04/16 10:20:50;;;;;;;21.65;11.30;;;;;;;6.90;100.00;97534.63;5029552;28;20061;-60
2023/04/16 10:23:18;;;;;;;23.38;10.93;;;;;;;6.75;100.00;97537.69;5032014;28;20049;-57
2023/04/16 10:25:46;;;;;;;23.40;11.85;;;;;;;6.83;100.00;97537.38;5028891;28;20045;-58
2023/04/16 10:28:14;;;;;;;20.77;11.25;;;;;;;6.85;100.00;97539.84;5029456;28;20073;-58
2023/04/16 10:30:47;;;;;;;23.38;12.32;;;;;;;6.89;100.00;97549.09;5035162;28;20063;-60
2023/04/16 10:33:14;;;;;;;20.63;11.27;;;;;;;6.84;100.00;97544.41;5027460;28;20122;-59
2023/04/16 10:35:40;;;;;;;22.77;10.65;;;;;;;6.96;100.00;97540.97;5029474;28;20037;-60
2023/04/16 10:38:26;;;;;;;18.80;9.57;;;;;;;6.95;100.00;97548.22;5028074;28;20055;-60
2023/04/16 10:41:02;;;;;;;19.38;10.43;;;;;;;6.97;100.00;97540.72;5026098;28;20087;-59
2023/04/16 10:43:30;;;;;;;17.98;9.52;;;;;;;7.07;100.00;97542.09;5032079;28;20378;-57
2023/04/16 10:45:56;;;;;;;18.33;10.13;;;;;;;7.14;100.00;97538.28;5027549;28;20110;-57
2023/04/16 10:48:24;;;;;;;18.80;9.98;;;;;;;7.04;100.00;97546.03;5028705;28;20053;-59
2023/04/16 10:50:56;;;;;;;22.98;9.35;;;;;;;6.96;100.00;97539.09;5031852;28;20040;-59
2023/04/16 10:53:25;;;;;;;17.15;9.43;;;;;;;6.99;100.00;97541.34;5026675;28;20133;-60
2023/04/16 10:55:56;;;;;;;18.70;9.65;;;;;;;6.96;100.00;97544.47;5038327;28;20048;-60
2023/04/16 10:58:27;;;;;;;17.70;9.02;;;;;;;7.09;100.00;97540.81;5021511;28;20053;-60
2023/04/16 11:00:54;;;;;;;20.23;10.20;;;;;;;7.18;100.00;97545.91;5032431;28;20128;-60
2023/04/16 11:03:20;;;;;;;16.05;8.55;;;;;;;7.28;100.00;97538.94;5035389;28;20519;-60
2023/04/16 11:05:47;;;;;;;23.83;13.23;;;;;;;7.45;100.00;97540.19;5034050;28;20045;-59
2023/04/16 11:08:15;;;;;;;15.20;8.63;;;;;;;7.32;100.00;97533.91;5032741;28;20041;-60
2023/04/16 11:10:41;;;;;;;13.55;8.00;;;;;;;7.28;100.00;97530.03;5031159;28;20072;-59
2023/04/16 11:13:11;;;;;;;15.07;8.65;;;;;;;7.46;100.00;97536.44;5024866;28;20056;-59
2023/04/16 11:15:38;;;;;;;15.68;8.82;;;;;;;7.65;100.00;97540.75;5033436;28;20045;-58
2023/04/16 11:18:05;;;;;;;15.68;8.32;;;;;;;7.58;100.00;97545.38;5032924;28;20103;-60
2023/04/16 11:20:32;;;;;;;14.35;7.25;;;;;;;7.60;100.00;97543.31;5032957;28;20558;-60